Flight Number: AVA1304 Duration: 2:00
Departure: Frankfurt am Main (EDDF) at 10:15 Distance: 697.048 Nm
Arrival: Tirane Rinas (LATI) at 12:15 Equipment: A321

Weather Information
Frankfurt / M-Flughafen, Germany (EDDF) 50-03N 008-36E 113M Jun 19, 2024 - 08:50 AM EDT / 2024.06.19 1250 UTC
Wind: from the NNE (020 degrees) at 12 MPH (10 KT):0
Visibility: greater than 7 mile(s):0
Sky conditions: mostly cloudy Temperature: 64 F (18 C) Dew Point: 57 F (14 C) Relative Humidity: 77% Pressure (altimeter): 30.03 in. Hg (1017 hPa)
ob: EDDF 191250Z AUTO 02010KT 9999 FEW014 BKN023 BKN030 18/14 Q1017 NOSIG cycle: 13
Sunrise: 03:20 Sunset: 19:34 (UTC)

Tirana, Albania (LATI) 41-20N 019-47E 90M Jun 19, 2024 - 08:50 AM EDT / 2024.06.19 1250 UTC
Wind: from the NNW (340 degrees) at 6 MPH (5 KT) (direction variable):0
Visibility: greater than 7 mile(s):0 Temperature: 95 F (35 C) Heat index: 98.4 F (36.9 C):1 Dew Point: 66 F (19 C) Relative Humidity: 39% Pressure (altimeter): 29.97 in. Hg (1015 hPa)
ob: LATI 191250Z 34005KT 290V020 CAVOK 35/19 Q1015 NOSIG cycle: 13
Sunrise: 03:11 Sunset: 18:14 (UTC)

TAF:2024/06/19 12:06 TAF LATI 191100Z 1912/2012 VRB03KT CAVOK TX38/2012Z TN19/2003Z TEMPO 1912/1918 31010KT

Previous Pireps for this route
Date Flightnr Aircraft Flight time Fuel used Landing rate On time
2017-04-21AVA1304A32101.5511469-178Yes
2018-11-24AVA1304A32102.0812889-235Yes
2019-11-24AVA1304A32102.0112041-121Yes
2020-11-10AVA1304A32101.4711779-180Yes
2021-11-18AVA1304A32101.5512318-431Yes
2023-01-13AVA1304A32102.0712685-182Yes
(pireps marked green are flown by you)

Route map